sensor_id;sensor_type;location;lat;lon;timestamp;P1;durP1;ratioP1;P2;durP2;ratioP2
32505;SDS011;18955;51.224;8.482;2022-11-02T00:00:52;13.60;;;2.30;;
32505;SDS011;18955;51.224;8.482;2022-11-02T00:03:19;10.90;;;2.85;;
32505;SDS011;18955;51.224;8.482;2022-11-02T00:05:45;14.43;;;2.05;;
32505;SDS011;18955;51.224;8.482;2022-11-02T00:08:11;18.27;;;1.83;;
32505;SDS011;18955;51.224;8.482;2022-11-02T00:10:38;14.10;;;2.47;;
32505;SDS011;18955;51.224;8.482;2022-11-02T00:13:04;14.75;;;2.08;;
32505;SDS011;18955;51.224;8.482;2022-11-02T00:15:31;15.90;;;3.13;;
32505;SDS011;18955;51.224;8.482;2022-11-02T00:18:00;14.20;;;2.47;;
32505;SDS011;18955;51.224;8.482;2022-11-02T00:20:30;11.73;;;2.60;;
32505;SDS011;18955;51.224;8.482;2022-11-02T00:22:58;13.23;;;2.05;;
32505;SDS011;18955;51.224;8.482;2022-11-02T00:25:25;9.48;;;1.80;;
32505;SDS011;18955;51.224;8.482;2022-11-02T00:27:52;14.38;;;2.35;;
32505;SDS011;18955;51.224;8.482;2022-11-02T00:30:19;18.33;;;2.13;;
32505;SDS011;18955;51.224;8.482;2022-11-02T00:32:45;16.50;;;2.50;;
32505;SDS011;18955;51.224;8.482;2022-11-02T00:35:11;17.67;;;1.92;;
32505;SDS011;18955;51.224;8.482;2022-11-02T00:37:38;14.15;;;2.15;;
32505;SDS011;18955;51.224;8.482;2022-11-02T00:40:04;9.98;;;1.80;;
32505;SDS011;18955;51.224;8.482;2022-11-02T00:42:31;11.38;;;1.75;;
32505;SDS011;18955;51.224;8.482;2022-11-02T00:44:57;9.70;;;2.22;;
32505;SDS011;18955;51.224;8.482;2022-11-02T00:47:24;8.23;;;1.40;;
32505;SDS011;18955;51.224;8.482;2022-11-02T00:49:52;17.40;;;2.30;;
32505;SDS011;18955;51.224;8.482;2022-11-02T00:52:18;18.13;;;1.85;;
32505;SDS011;18955;51.224;8.482;2022-11-02T00:54:48;15.38;;;2.25;;
32505;SDS011;18955;51.224;8.482;2022-11-02T00:57:14;16.95;;;1.95;;
32505;SDS011;18955;51.224;8.482;2022-11-02T00:59:41;11.73;;;1.90;;
32505;SDS011;18955;51.224;8.482;2022-11-02T01:02:07;17.13;;;2.00;;
32505;SDS011;18955;51.224;8.482;2022-11-02T01:04:34;15.80;;;2.42;;
32505;SDS011;18955;51.224;8.482;2022-11-02T01:07:00;12.20;;;2.10;;
32505;SDS011;18955;51.224;8.482;2022-11-02T01:09:27;9.98;;;1.73;;
32505;SDS011;18955;51.224;8.482;2022-11-02T01:11:53;15.73;;;2.78;;
32505;SDS011;18955;51.224;8.482;2022-11-02T01:14:20;11.88;;;2.13;;
32505;SDS011;18955;51.224;8.482;2022-11-02T01:16:46;14.77;;;2.15;;
32505;SDS011;18955;51.224;8.482;2022-11-02T01:19:12;10.88;;;2.03;;
32505;SDS011;18955;51.224;8.482;2022-11-02T01:21:39;17.02;;;2.03;;
32505;SDS011;18955;51.224;8.482;2022-11-02T01:24:05;8.57;;;1.02;;
32505;SDS011;18955;51.224;8.482;2022-11-02T01:26:32;14.20;;;2.00;;
32505;SDS011;18955;51.224;8.482;2022-11-02T01:28:58;7.75;;;1.38;;
32505;SDS011;18955;51.224;8.482;2022-11-02T01:31:24;22.13;;;2.08;;
32505;SDS011;18955;51.224;8.482;2022-11-02T01:33:50;19.90;;;2.33;;
32505;SDS011;18955;51.224;8.482;2022-11-02T01:36:17;20.33;;;1.85;;
32505;SDS011;18955;51.224;8.482;2022-11-02T01:38:46;15.90;;;2.17;;
32505;SDS011;18955;51.224;8.482;2022-11-02T01:41:14;13.57;;;2.20;;
32505;SDS011;18955;51.224;8.482;2022-11-02T01:43:42;15.48;;;2.28;;
32505;SDS011;18955;51.224;8.482;2022-11-02T01:51:21;14.07;;;2.92;;
32505;SDS011;18955;51.224;8.482;2022-11-02T01:53:59;12.88;;;1.77;;
32505;SDS011;18955;51.224;8.482;2022-11-02T01:56:31;17.60;;;2.00;;
32505;SDS011;18955;51.224;8.482;2022-11-02T01:58:59;12.73;;;2.15;;
32505;SDS011;18955;51.224;8.482;2022-11-02T02:01:28;15.68;;;2.35;;
32505;SDS011;18955;51.224;8.482;2022-11-02T02:03:55;16.13;;;1.95;;
32505;SDS011;18955;51.224;8.482;2022-11-02T02:08:50;14.75;;;3.25;;
32505;SDS011;18955;51.224;8.482;2022-11-02T02:11:23;12.52;;;2.13;;
32505;SDS011;18955;51.224;8.482;2022-11-02T02:13:54;17.58;;;2.65;;
32505;SDS011;18955;51.224;8.482;2022-11-02T02:22:03;9.30;;;1.75;;
32505;SDS011;18955;51.224;8.482;2022-11-02T02:24:43;17.30;;;2.05;;
32505;SDS011;18955;51.224;8.482;2022-11-02T02:27:17;12.60;;;2.33;;
32505;SDS011;18955;51.224;8.482;2022-11-02T02:30:05;14.90;;;3.15;;
32505;SDS011;18955;51.224;8.482;2022-11-02T02:32:37;11.35;;;1.90;;
32505;SDS011;18955;51.224;8.482;2022-11-02T02:38:16;15.30;;;2.00;;
32505;SDS011;18955;51.224;8.482;2022-11-02T02:41:02;12.52;;;2.00;;
32505;SDS011;18955;51.224;8.482;2022-11-02T02:44:03;15.18;;;2.60;;
32505;SDS011;18955;51.224;8.482;2022-11-02T02:46:41;11.85;;;2.00;;
32505;SDS011;18955;51.224;8.482;2022-11-02T02:49:14;13.40;;;2.20;;
32505;SDS011;18955;51.224;8.482;2022-11-02T02:51:44;14.38;;;1.95;;
32505;SDS011;18955;51.224;8.482;2022-11-02T02:54:14;10.98;;;2.35;;
32505;SDS011;18955;51.224;8.482;2022-11-02T02:56:50;8.02;;;1.80;;
32505;SDS011;18955;51.224;8.482;2022-11-02T02:59:25;14.38;;;2.10;;
32505;SDS011;18955;51.224;8.482;2022-11-02T03:01:58;16.33;;;1.90;;
32505;SDS011;18955;51.224;8.482;2022-11-02T03:04:25;12.32;;;1.63;;
32505;SDS011;18955;51.224;8.482;2022-11-02T03:06:51;13.32;;;2.45;;
32505;SDS011;18955;51.224;8.482;2022-11-02T03:12:10;13.38;;;2.25;;
32505;SDS011;18955;51.224;8.482;2022-11-02T03:20:00;16.67;;;2.40;;
32505;SDS011;18955;51.224;8.482;2022-11-02T03:25:29;10.48;;;2.03;;
32505;SDS011;18955;51.224;8.482;2022-11-02T03:28:23;12.77;;;2.40;;
32505;SDS011;18955;51.224;8.482;2022-11-02T03:30:53;10.70;;;2.30;;
32505;SDS011;18955;51.224;8.482;2022-11-02T03:33:34;16.25;;;3.08;;
32505;SDS011;18955;51.224;8.482;2022-11-02T03:36:08;21.25;;;2.83;;
32505;SDS011;18955;51.224;8.482;2022-11-02T03:38:51;13.38;;;2.30;;
32505;SDS011;18955;51.224;8.482;2022-11-02T03:41:23;17.48;;;2.03;;
32505;SDS011;18955;51.224;8.482;2022-11-02T03:43:56;12.57;;;1.90;;
32505;SDS011;18955;51.224;8.482;2022-11-02T03:46:28;18.02;;;2.65;;
32505;SDS011;18955;51.224;8.482;2022-11-02T03:48:58;11.38;;;2.33;;
32505;SDS011;18955;51.224;8.482;2022-11-02T03:51:26;18.50;;;2.17;;
32505;SDS011;18955;51.224;8.482;2022-11-02T03:54:00;17.38;;;2.25;;
32505;SDS011;18955;51.224;8.482;2022-11-02T03:56:38;19.23;;;3.20;;
32505;SDS011;18955;51.224;8.482;2022-11-02T03:59:09;10.93;;;2.30;;
32505;SDS011;18955;51.224;8.482;2022-11-02T04:01:36;11.73;;;1.95;;
32505;SDS011;18955;51.224;8.482;2022-11-02T04:04:06;11.32;;;2.20;;
32505;SDS011;18955;51.224;8.482;2022-11-02T04:06:32;11.48;;;1.73;;
32505;SDS011;18955;51.224;8.482;2022-11-02T04:09:00;16.48;;;2.92;;
32505;SDS011;18955;51.224;8.482;2022-11-02T04:11:27;17.75;;;2.83;;
32505;SDS011;18955;51.224;8.482;2022-11-02T04:14:14;15.98;;;2.08;;
32505;SDS011;18955;51.224;8.482;2022-11-02T04:17:00;14.95;;;2.60;;
32505;SDS011;18955;51.224;8.482;2022-11-02T04:19:49;13.40;;;2.30;;
32505;SDS011;18955;51.224;8.482;2022-11-02T04:25:06;11.65;;;2.28;;
32505;SDS011;18955;51.224;8.482;2022-11-02T04:28:06;9.85;;;2.20;;
32505;SDS011;18955;51.224;8.482;2022-11-02T04:30:37;13.05;;;2.47;;
32505;SDS011;18955;51.224;8.482;2022-11-02T04:33:03;13.02;;;2.40;;
32505;SDS011;18955;51.224;8.482;2022-11-02T04:35:54;14.70;;;2.20;;
32505;SDS011;18955;51.224;8.482;2022-11-02T04:38:21;14.35;;;2.13;;
32505;SDS011;18955;51.224;8.482;2022-11-02T04:41:14;12.52;;;2.60;;
32505;SDS011;18955;51.224;8.482;2022-11-02T04:44:02;16.45;;;2.47;;
32505;SDS011;18955;51.224;8.482;2022-11-02T04:46:30;17.90;;;2.47;;
32505;SDS011;18955;51.224;8.482;2022-11-02T04:49:00;14.77;;;2.50;;
32505;SDS011;18955;51.224;8.482;2022-11-02T04:51:29;12.20;;;2.10;;
32505;SDS011;18955;51.224;8.482;2022-11-02T04:53:57;11.60;;;2.10;;
32505;SDS011;18955;51.224;8.482;2022-11-02T04:56:24;13.48;;;2.47;;
32505;SDS011;18955;51.224;8.482;2022-11-02T04:58:52;12.98;;;2.08;;
32505;SDS011;18955;51.224;8.482;2022-11-02T05:01:22;8.27;;;1.77;;
32505;SDS011;18955;51.224;8.482;2022-11-02T05:03:50;11.60;;;2.35;;
32505;SDS011;18955;51.224;8.482;2022-11-02T05:06:18;10.68;;;2.60;;
32505;SDS011;18955;51.224;8.482;2022-11-02T05:08:47;14.40;;;2.30;;
32505;SDS011;18955;51.224;8.482;2022-11-02T05:11:13;11.20;;;2.03;;
32505;SDS011;18955;51.224;8.482;2022-11-02T05:13:40;18.70;;;2.53;;
32505;SDS011;18955;51.224;8.482;2022-11-02T05:16:09;11.07;;;2.65;;
32505;SDS011;18955;51.224;8.482;2022-11-02T05:18:37;11.88;;;2.67;;
32505;SDS011;18955;51.224;8.482;2022-11-02T05:21:04;12.70;;;2.45;;
32505;SDS011;18955;51.224;8.482;2022-11-02T05:23:30;10.30;;;2.08;;
32505;SDS011;18955;51.224;8.482;2022-11-02T05:25:59;13.48;;;2.50;;
32505;SDS011;18955;51.224;8.482;2022-11-02T05:28:29;11.20;;;2.47;;
32505;SDS011;18955;51.224;8.482;2022-11-02T05:30:57;11.13;;;2.03;;
32505;SDS011;18955;51.224;8.482;2022-11-02T05:33:26;9.13;;;1.60;;
32505;SDS011;18955;51.224;8.482;2022-11-02T05:35:55;15.77;;;2.28;;
32505;SDS011;18955;51.224;8.482;2022-11-02T05:38:22;14.20;;;2.10;;
32505;SDS011;18955;51.224;8.482;2022-11-02T05:40:53;10.68;;;2.05;;
32505;SDS011;18955;51.224;8.482;2022-11-02T05:43:21;16.45;;;2.65;;
32505;SDS011;18955;51.224;8.482;2022-11-02T05:45:55;26.55;;;2.70;;
32505;SDS011;18955;51.224;8.482;2022-11-02T05:48:23;12.38;;;2.33;;
32505;SDS011;18955;51.224;8.482;2022-11-02T05:50:54;20.60;;;2.47;;
32505;SDS011;18955;51.224;8.482;2022-11-02T05:53:21;14.40;;;3.08;;
32505;SDS011;18955;51.224;8.482;2022-11-02T05:55:48;8.15;;;1.90;;
32505;SDS011;18955;51.224;8.482;2022-11-02T05:58:14;9.32;;;2.10;;
32505;SDS011;18955;51.224;8.482;2022-11-02T06:00:41;10.30;;;2.10;;
32505;SDS011;18955;51.224;8.482;2022-11-02T06:03:07;12.50;;;1.95;;
32505;SDS011;18955;51.224;8.482;2022-11-02T06:05:33;6.47;;;1.58;;
32505;SDS011;18955;51.224;8.482;2022-11-02T06:08:00;14.88;;;2.55;;
32505;SDS011;18955;51.224;8.482;2022-11-02T06:10:27;16.83;;;2.25;;
32505;SDS011;18955;51.224;8.482;2022-11-02T06:12:58;10.07;;;2.10;;
32505;SDS011;18955;51.224;8.482;2022-11-02T06:15:29;12.57;;;2.65;;
32505;SDS011;18955;51.224;8.482;2022-11-02T06:17:56;12.05;;;2.55;;
32505;SDS011;18955;51.224;8.482;2022-11-02T06:20:23;16.50;;;2.53;;
32505;SDS011;18955;51.224;8.482;2022-11-02T06:22:49;15.98;;;2.35;;
32505;SDS011;18955;51.224;8.482;2022-11-02T06:25:15;12.43;;;2.40;;
32505;SDS011;18955;51.224;8.482;2022-11-02T06:27:48;9.40;;;2.33;;
32505;SDS011;18955;51.224;8.482;2022-11-02T06:30:17;14.60;;;2.40;;
32505;SDS011;18955;51.224;8.482;2022-11-02T06:32:47;12.52;;;2.33;;
32505;SDS011;18955;51.224;8.482;2022-11-02T06:35:14;12.68;;;2.53;;
32505;SDS011;18955;51.224;8.482;2022-11-02T06:37:42;8.07;;;1.85;;
32505;SDS011;18955;51.224;8.482;2022-11-02T06:40:09;14.00;;;2.30;;
32505;SDS011;18955;51.224;8.482;2022-11-02T06:42:36;14.88;;;2.45;;
32505;SDS011;18955;51.224;8.482;2022-11-02T06:45:03;10.95;;;1.98;;
32505;SDS011;18955;51.224;8.482;2022-11-02T06:47:30;13.60;;;2.30;;
32505;SDS011;18955;51.224;8.482;2022-11-02T06:49:58;11.02;;;2.35;;
32505;SDS011;18955;51.224;8.482;2022-11-02T06:52:25;16.50;;;2.78;;
32505;SDS011;18955;51.224;8.482;2022-11-02T06:54:51;15.90;;;2.10;;
32505;SDS011;18955;51.224;8.482;2022-11-02T06:57:18;15.57;;;2.80;;
32505;SDS011;18955;51.224;8.482;2022-11-02T06:59:45;19.35;;;2.50;;
32505;SDS011;18955;51.224;8.482;2022-11-02T07:02:11;11.18;;;2.20;;
32505;SDS011;18955;51.224;8.482;2022-11-02T07:04:37;16.83;;;2.38;;
32505;SDS011;18955;51.224;8.482;2022-11-02T07:07:03;13.52;;;2.13;;
32505;SDS011;18955;51.224;8.482;2022-11-02T07:09:30;8.07;;;1.50;;
32505;SDS011;18955;51.224;8.482;2022-11-02T07:11:56;9.38;;;2.20;;
32505;SDS011;18955;51.224;8.482;2022-11-02T07:14:23;12.70;;;2.45;;
32505;SDS011;18955;51.224;8.482;2022-11-02T07:16:49;11.40;;;1.92;;
32505;SDS011;18955;51.224;8.482;2022-11-02T07:19:15;8.80;;;2.10;;
32505;SDS011;18955;51.224;8.482;2022-11-02T07:21:41;10.90;;;2.22;;
32505;SDS011;18955;51.224;8.482;2022-11-02T07:24:08;15.02;;;2.83;;
32505;SDS011;18955;51.224;8.482;2022-11-02T07:26:34;12.63;;;2.72;;
32505;SDS011;18955;51.224;8.482;2022-11-02T07:29:00;10.95;;;2.38;;
32505;SDS011;18955;51.224;8.482;2022-11-02T07:31:26;10.88;;;2.13;;
32505;SDS011;18955;51.224;8.482;2022-11-02T07:33:52;14.15;;;2.22;;
32505;SDS011;18955;51.224;8.482;2022-11-02T07:36:19;13.02;;;2.97;;
32505;SDS011;18955;51.224;8.482;2022-11-02T07:38:45;12.40;;;1.88;;
32505;SDS011;18955;51.224;8.482;2022-11-02T07:41:11;7.32;;;1.50;;
32505;SDS011;18955;51.224;8.482;2022-11-02T07:43:37;6.38;;;1.00;;
32505;SDS011;18955;51.224;8.482;2022-11-02T07:46:14;9.82;;;1.85;;
32505;SDS011;18955;51.224;8.482;2022-11-02T07:48:40;12.82;;;1.52;;
32505;SDS011;18955;51.224;8.482;2022-11-02T07:51:06;17.92;;;2.45;;
32505;SDS011;18955;51.224;8.482;2022-11-02T07:53:35;10.38;;;1.92;;
32505;SDS011;18955;51.224;8.482;2022-11-02T07:58:28;18.23;;;2.05;;
32505;SDS011;18955;51.224;8.482;2022-11-02T08:00:58;17.90;;;2.25;;
32505;SDS011;18955;51.224;8.482;2022-11-02T08:03:26;9.25;;;2.05;;
32505;SDS011;18955;51.224;8.482;2022-11-02T08:05:53;17.80;;;2.10;;
32505;SDS011;18955;51.224;8.482;2022-11-02T08:08:20;19.42;;;2.40;;
32505;SDS011;18955;51.224;8.482;2022-11-02T08:10:48;12.80;;;2.03;;
32505;SDS011;18955;51.224;8.482;2022-11-02T08:13:17;6.05;;;1.67;;
32505;SDS011;18955;51.224;8.482;2022-11-02T08:15:52;10.15;;;1.63;;
32505;SDS011;18955;51.224;8.482;2022-11-02T08:20:53;13.60;;;2.30;;
32505;SDS011;18955;51.224;8.482;2022-11-02T08:23:24;12.50;;;2.10;;
32505;SDS011;18955;51.224;8.482;2022-11-02T08:25:51;12.63;;;2.45;;
32505;SDS011;18955;51.224;8.482;2022-11-02T08:28:22;7.22;;;1.92;;
32505;SDS011;18955;51.224;8.482;2022-11-02T08:30:51;6.55;;;1.60;;
32505;SDS011;18955;51.224;8.482;2022-11-02T08:35:44;13.60;;;2.38;;
32505;SDS011;18955;51.224;8.482;2022-11-02T08:38:12;15.77;;;2.30;;
32505;SDS011;18955;51.224;8.482;2022-11-02T08:40:39;13.80;;;2.20;;
32505;SDS011;18955;51.224;8.482;2022-11-02T08:43:07;11.00;;;2.08;;
32505;SDS011;18955;51.224;8.482;2022-11-02T08:45:35;10.13;;;1.75;;
32505;SDS011;18955;51.224;8.482;2022-11-02T08:48:03;12.23;;;2.60;;
32505;SDS011;18955;51.224;8.482;2022-11-02T08:50:30;11.70;;;2.05;;
32505;SDS011;18955;51.224;8.482;2022-11-02T08:52:57;8.98;;;2.05;;
32505;SDS011;18955;51.224;8.482;2022-11-02T08:55:23;14.80;;;2.47;;
32505;SDS011;18955;51.224;8.482;2022-11-02T08:57:50;10.80;;;2.00;;
32505;SDS011;18955;51.224;8.482;2022-11-02T09:00:19;10.82;;;1.98;;
32505;SDS011;18955;51.224;8.482;2022-11-02T09:03:08;11.95;;;2.30;;
32505;SDS011;18955;51.224;8.482;2022-11-02T09:05:37;10.60;;;2.15;;
32505;SDS011;18955;51.224;8.482;2022-11-02T09:08:06;10.05;;;1.98;;
32505;SDS011;18955;51.224;8.482;2022-11-02T09:10:35;11.00;;;2.03;;
32505;SDS011;18955;51.224;8.482;2022-11-02T09:13:02;11.10;;;2.05;;
32505;SDS011;18955;51.224;8.482;2022-11-02T09:15:31;12.48;;;2.70;;
32505;SDS011;18955;51.224;8.482;2022-11-02T09:17:59;14.23;;;2.25;;
32505;SDS011;18955;51.224;8.482;2022-11-02T09:20:26;13.32;;;2.40;;
32505;SDS011;18955;51.224;8.482;2022-11-02T09:22:52;12.38;;;2.35;;
32505;SDS011;18955;51.224;8.482;2022-11-02T09:25:18;15.52;;;3.03;;
32505;SDS011;18955;51.224;8.482;2022-11-02T09:27:45;13.25;;;2.22;;
32505;SDS011;18955;51.224;8.482;2022-11-02T09:30:11;12.75;;;2.15;;
32505;SDS011;18955;51.224;8.482;2022-11-02T09:32:38;8.43;;;1.90;;
32505;SDS011;18955;51.224;8.482;2022-11-02T09:35:05;9.20;;;1.90;;
32505;SDS011;18955;51.224;8.482;2022-11-02T09:37:34;11.75;;;2.53;;
32505;SDS011;18955;51.224;8.482;2022-11-02T09:40:01;10.50;;;2.15;;
32505;SDS011;18955;51.224;8.482;2022-11-02T09:45:35;23.40;;;3.10;;
32505;SDS011;18955;51.224;8.482;2022-11-02T09:48:11;16.40;;;2.72;;
32505;SDS011;18955;51.224;8.482;2022-11-02T09:50:47;9.43;;;2.30;;
32505;SDS011;18955;51.224;8.482;2022-11-02T09:53:17;6.95;;;2.15;;
32505;SDS011;18955;51.224;8.482;2022-11-02T09:55:50;5.80;;;1.77;;
32505;SDS011;18955;51.224;8.482;2022-11-02T09:58:20;9.23;;;2.10;;
32505;SDS011;18955;51.224;8.482;2022-11-02T10:00:58;9.25;;;1.92;;
32505;SDS011;18955;51.224;8.482;2022-11-02T10:03:38;11.40;;;2.25;;
32505;SDS011;18955;51.224;8.482;2022-11-02T10:06:20;10.52;;;2.15;;
32505;SDS011;18955;51.224;8.482;2022-11-02T10:08:50;8.05;;;2.20;;
32505;SDS011;18955;51.224;8.482;2022-11-02T10:14:09;8.02;;;2.08;;
32505;SDS011;18955;51.224;8.482;2022-11-02T10:19:22;13.13;;;3.05;;
32505;SDS011;18955;51.224;8.482;2022-11-02T10:21:51;7.90;;;2.25;;
32505;SDS011;18955;51.224;8.482;2022-11-02T10:24:22;6.88;;;1.75;;
32505;SDS011;18955;51.224;8.482;2022-11-02T10:26:55;14.27;;;2.25;;
32505;SDS011;18955;51.224;8.482;2022-11-02T10:32:09;11.52;;;3.22;;
32505;SDS011;18955;51.224;8.482;2022-11-02T10:34:37;7.55;;;1.95;;
32505;SDS011;18955;51.224;8.482;2022-11-02T10:48:06;12.73;;;1.98;;
32505;SDS011;18955;51.224;8.482;2022-11-02T10:51:02;10.77;;;2.30;;
32505;SDS011;18955;51.224;8.482;2022-11-02T10:53:47;9.77;;;2.13;;
32505;SDS011;18955;51.224;8.482;2022-11-02T10:56:17;8.63;;;1.40;;
32505;SDS011;18955;51.224;8.482;2022-11-02T10:58:49;7.53;;;1.90;;
32505;SDS011;18955;51.224;8.482;2022-11-02T11:01:22;7.32;;;1.83;;
32505;SDS011;18955;51.224;8.482;2022-11-02T11:06:48;8.23;;;1.55;;
32505;SDS011;18955;51.224;8.482;2022-11-02T11:09:19;7.20;;;1.83;;
32505;SDS011;18955;51.224;8.482;2022-11-02T11:12:02;6.38;;;1.55;;
32505;SDS011;18955;51.224;8.482;2022-11-02T11:14:43;11.90;;;1.80;;
32505;SDS011;18955;51.224;8.482;2022-11-02T11:17:18;8.35;;;1.80;;
32505;SDS011;18955;51.224;8.482;2022-11-02T11:19:49;10.05;;;1.83;;
32505;SDS011;18955;51.224;8.482;2022-11-02T11:22:34;10.98;;;1.45;;
32505;SDS011;18955;51.224;8.482;2022-11-02T11:27:43;7.72;;;1.50;;
32505;SDS011;18955;51.224;8.482;2022-11-02T11:30:27;9.20;;;1.25;;
32505;SDS011;18955;51.224;8.482;2022-11-02T11:32:55;9.00;;;1.60;;
32505;SDS011;18955;51.224;8.482;2022-11-02T11:35:32;6.00;;;1.27;;
32505;SDS011;18955;51.224;8.482;2022-11-02T11:38:02;12.38;;;1.52;;
32505;SDS011;18955;51.224;8.482;2022-11-02T11:40:37;8.07;;;1.70;;
32505;SDS011;18955;51.224;8.482;2022-11-02T11:43:09;11.07;;;1.50;;
32505;SDS011;18955;51.224;8.482;2022-11-02T11:45:39;7.50;;;1.50;;
32505;SDS011;18955;51.224;8.482;2022-11-02T11:51:20;13.30;;;1.38;;
32505;SDS011;18955;51.224;8.482;2022-11-02T11:54:05;10.63;;;1.65;;
32505;SDS011;18955;51.224;8.482;2022-11-02T11:56:58;6.60;;;1.73;;
32505;SDS011;18955;51.224;8.482;2022-11-02T11:59:45;6.35;;;1.33;;
32505;SDS011;18955;51.224;8.482;2022-11-02T12:02:23;8.52;;;1.90;;
32505;SDS011;18955;51.224;8.482;2022-11-02T12:04:57;10.73;;;1.70;;
32505;SDS011;18955;51.224;8.482;2022-11-02T12:07:39;8.73;;;1.48;;
32505;SDS011;18955;51.224;8.482;2022-11-02T12:10:29;7.13;;;1.20;;
32505;SDS011;18955;51.224;8.482;2022-11-02T12:18:58;7.05;;;1.30;;
32505;SDS011;18955;51.224;8.482;2022-11-02T12:27:43;8.02;;;1.77;;
32505;SDS011;18955;51.224;8.482;2022-11-02T12:44:36;13.57;;;1.27;;
32505;SDS011;18955;51.224;8.482;2022-11-02T12:47:10;7.25;;;1.42;;
32505;SDS011;18955;51.224;8.482;2022-11-02T12:52:51;9.57;;;1.48;;
32505;SDS011;18955;51.224;8.482;2022-11-02T12:55:34;11.65;;;1.40;;
32505;SDS011;18955;51.224;8.482;2022-11-02T12:58:19;8.65;;;2.03;;
32505;SDS011;18955;51.224;8.482;2022-11-02T13:00:47;7.55;;;1.33;;
32505;SDS011;18955;51.224;8.482;2022-11-02T13:06:12;8.32;;;1.15;;
32505;SDS011;18955;51.224;8.482;2022-11-02T13:08:57;9.27;;;1.10;;
32505;SDS011;18955;51.224;8.482;2022-11-02T13:14:02;9.00;;;1.30;;
32505;SDS011;18955;51.224;8.482;2022-11-02T13:16:36;10.52;;;1.17;;
32505;SDS011;18955;51.224;8.482;2022-11-02T13:19:12;6.28;;;0.85;;
32505;SDS011;18955;51.224;8.482;2022-11-02T13:21:48;6.65;;;0.95;;
32505;SDS011;18955;51.224;8.482;2022-11-02T13:24:21;6.03;;;1.20;;
32505;SDS011;18955;51.224;8.482;2022-11-02T13:26:51;8.05;;;1.30;;
32505;SDS011;18955;51.224;8.482;2022-11-02T13:29:29;8.23;;;1.70;;
32505;SDS011;18955;51.224;8.482;2022-11-02T13:32:09;8.65;;;1.20;;
32505;SDS011;18955;51.224;8.482;2022-11-02T13:37:50;9.65;;;1.10;;
32505;SDS011;18955;51.224;8.482;2022-11-02T13:48:52;6.82;;;1.45;;
32505;SDS011;18955;51.224;8.482;2022-11-02T13:53:52;8.13;;;1.70;;
32505;SDS011;18955;51.224;8.482;2022-11-02T13:56:24;9.02;;;1.65;;
32505;SDS011;18955;51.224;8.482;2022-11-02T14:01:42;9.70;;;1.23;;
32505;SDS011;18955;51.224;8.482;2022-11-02T14:04:11;6.13;;;1.30;;
32505;SDS011;18955;51.224;8.482;2022-11-02T14:06:44;7.82;;;1.52;;
32505;SDS011;18955;51.224;8.482;2022-11-02T14:09:39;10.48;;;1.55;;
32505;SDS011;18955;51.224;8.482;2022-11-02T14:12:10;8.52;;;1.20;;
32505;SDS011;18955;51.224;8.482;2022-11-02T14:23:45;8.27;;;1.20;;
32505;SDS011;18955;51.224;8.482;2022-11-02T14:25:59;10.63;;;1.17;;
32505;SDS011;18955;51.224;8.482;2022-11-02T14:28:40;6.82;;;1.45;;
32505;SDS011;18955;51.224;8.482;2022-11-02T14:36:32;6.57;;;1.15;;
32505;SDS011;18955;51.224;8.482;2022-11-02T14:39:39;8.63;;;1.17;;
32505;SDS011;18955;51.224;8.482;2022-11-02T14:47:44;12.73;;;1.50;;
32505;SDS011;18955;51.224;8.482;2022-11-02T14:52:37;5.75;;;1.15;;
32505;SDS011;18955;51.224;8.482;2022-11-02T14:57:50;14.10;;;1.58;;
32505;SDS011;18955;51.224;8.482;2022-11-02T15:00:32;8.68;;;1.42;;
32505;SDS011;18955;51.224;8.482;2022-11-02T15:03:00;9.68;;;1.60;;
32505;SDS011;18955;51.224;8.482;2022-11-02T15:05:28;11.38;;;1.45;;
32505;SDS011;18955;51.224;8.482;2022-11-02T15:16:36;15.02;;;1.52;;
32505;SDS011;18955;51.224;8.482;2022-11-02T15:18:36;11.23;;;1.20;;
32505;SDS011;18955;51.224;8.482;2022-11-02T15:29:19;10.73;;;0.88;;
32505;SDS011;18955;51.224;8.482;2022-11-02T15:32:10;6.78;;;1.10;;
32505;SDS011;18955;51.224;8.482;2022-11-02T15:34:43;15.02;;;1.70;;
32505;SDS011;18955;51.224;8.482;2022-11-02T15:37:16;12.35;;;2.50;;
32505;SDS011;18955;51.224;8.482;2022-11-02T15:39:55;9.98;;;1.38;;
32505;SDS011;18955;51.224;8.482;2022-11-02T15:42:37;7.47;;;1.40;;
32505;SDS011;18955;51.224;8.482;2022-11-02T15:53:44;7.28;;;1.38;;
32505;SDS011;18955;51.224;8.482;2022-11-02T16:02:17;3.17;;;0.82;;
32505;SDS011;18955;51.224;8.482;2022-11-02T16:04:49;8.85;;;1.05;;
32505;SDS011;18955;51.224;8.482;2022-11-02T16:07:18;11.55;;;1.50;;
32505;SDS011;18955;51.224;8.482;2022-11-02T16:09:45;9.27;;;1.33;;
32505;SDS011;18955;51.224;8.482;2022-11-02T16:14:52;7.93;;;1.98;;
32505;SDS011;18955;51.224;8.482;2022-11-02T16:19:51;9.73;;;1.60;;
32505;SDS011;18955;51.224;8.482;2022-11-02T16:22:32;9.50;;;1.10;;
32505;SDS011;18955;51.224;8.482;2022-11-02T16:24:58;13.00;;;1.45;;
32505;SDS011;18955;51.224;8.482;2022-11-02T16:27:25;6.80;;;1.52;;
32505;SDS011;18955;51.224;8.482;2022-11-02T16:29:51;10.02;;;1.27;;
32505;SDS011;18955;51.224;8.482;2022-11-02T16:32:17;5.80;;;1.65;;
32505;SDS011;18955;51.224;8.482;2022-11-02T16:34:44;8.13;;;1.00;;
32505;SDS011;18955;51.224;8.482;2022-11-02T16:37:11;12.93;;;1.38;;
32505;SDS011;18955;51.224;8.482;2022-11-02T16:39:39;4.22;;;0.80;;
32505;SDS011;18955;51.224;8.482;2022-11-02T16:42:18;11.43;;;1.80;;
32505;SDS011;18955;51.224;8.482;2022-11-02T16:47:40;10.30;;;1.40;;
32505;SDS011;18955;51.224;8.482;2022-11-02T16:50:22;10.48;;;1.13;;
32505;SDS011;18955;51.224;8.482;2022-11-02T16:52:56;11.15;;;1.48;;
32505;SDS011;18955;51.224;8.482;2022-11-02T16:58:05;5.20;;;0.85;;
32505;SDS011;18955;51.224;8.482;2022-11-02T17:00:36;12.50;;;1.80;;
32505;SDS011;18955;51.224;8.482;2022-11-02T17:03:06;7.18;;;1.30;;
32505;SDS011;18955;51.224;8.482;2022-11-02T17:05:34;4.05;;;1.10;;
32505;SDS011;18955;51.224;8.482;2022-11-02T17:08:05;10.98;;;1.00;;
32505;SDS011;18955;51.224;8.482;2022-11-02T17:10:40;9.02;;;1.42;;
32505;SDS011;18955;51.224;8.482;2022-11-02T17:13:12;3.83;;;1.10;;
32505;SDS011;18955;51.224;8.482;2022-11-02T17:15:44;5.40;;;1.25;;
32505;SDS011;18955;51.224;8.482;2022-11-02T17:18:14;4.50;;;1.13;;
32505;SDS011;18955;51.224;8.482;2022-11-02T17:23:42;6.85;;;1.65;;
32505;SDS011;18955;51.224;8.482;2022-11-02T17:26:25;5.00;;;1.10;;
32505;SDS011;18955;51.224;8.482;2022-11-02T17:28:53;8.48;;;1.30;;
32505;SDS011;18955;51.224;8.482;2022-11-02T17:31:20;9.00;;;1.20;;
32505;SDS011;18955;51.224;8.482;2022-11-02T17:33:49;7.68;;;1.25;;
32505;SDS011;18955;51.224;8.482;2022-11-02T17:36:15;3.80;;;1.05;;
32505;SDS011;18955;51.224;8.482;2022-11-02T17:38:42;3.75;;;1.15;;
32505;SDS011;18955;51.224;8.482;2022-11-02T17:41:10;4.15;;;0.77;;
32505;SDS011;18955;51.224;8.482;2022-11-02T17:44:08;7.47;;;1.42;;
32505;SDS011;18955;51.224;8.482;2022-11-02T17:46:40;7.15;;;1.50;;
32505;SDS011;18955;51.224;8.482;2022-11-02T17:49:06;12.82;;;1.48;;
32505;SDS011;18955;51.224;8.482;2022-11-02T17:51:32;12.13;;;1.50;;
32505;SDS011;18955;51.224;8.482;2022-11-02T17:53:58;6.85;;;1.20;;
32505;SDS011;18955;51.224;8.482;2022-11-02T17:56:24;15.57;;;1.98;;
32505;SDS011;18955;51.224;8.482;2022-11-02T17:58:51;5.60;;;1.15;;
32505;SDS011;18955;51.224;8.482;2022-11-02T18:01:17;4.55;;;1.23;;
32505;SDS011;18955;51.224;8.482;2022-11-02T18:03:43;26.42;;;2.22;;
32505;SDS011;18955;51.224;8.482;2022-11-02T18:06:09;8.80;;;1.67;;
32505;SDS011;18955;51.224;8.482;2022-11-02T18:08:36;4.55;;;0.98;;
32505;SDS011;18955;51.224;8.482;2022-11-02T18:11:31;11.63;;;1.40;;